createdAt,value
2023-01-22T00:01:24.631Z,0.96
2023-01-22T00:03:54.590Z,0.95
2023-01-22T00:06:23.714Z,0.94
2023-01-22T00:08:53.136Z,0.98
2023-01-22T00:11:21.666Z,0.94
2023-01-22T00:13:49.632Z,0.91
2023-01-22T00:16:18.381Z,0.92
2023-01-22T00:18:46.534Z,1.01
2023-01-22T00:21:14.545Z,0.98
2023-01-22T00:23:42.499Z,0.96
2023-01-22T00:26:13.928Z,0.95
2023-01-22T00:28:46.915Z,0.90
2023-01-22T00:31:17.032Z,0.91
2023-01-22T00:33:47.260Z,0.93
2023-01-22T00:36:19.475Z,0.87
2023-01-22T00:38:50.668Z,0.92
2023-01-22T00:41:20.018Z,0.92
2023-01-22T00:43:50.120Z,0.91
2023-01-22T00:46:20.118Z,0.94
2023-01-22T00:48:51.195Z,0.91
2023-01-22T00:51:20.202Z,0.93
2023-01-22T00:53:48.117Z,0.98
2023-01-22T00:56:17.737Z,1.04
2023-01-22T00:58:45.769Z,1.05
2023-01-22T01:01:15.589Z,1.02
2023-01-22T01:03:43.642Z,1.08
2023-01-22T01:06:21.682Z,1.07
2023-01-22T01:08:50.222Z,1.13
2023-01-22T01:11:23.172Z,1.11
2023-01-22T01:13:51.640Z,1.11
2023-01-22T01:16:32.071Z,1.06
2023-01-22T01:19:03.120Z,1.02
2023-01-22T01:21:31.605Z,1.01
2023-01-22T01:24:00.828Z,1.10
2023-01-22T01:26:28.945Z,1.07
2023-01-22T01:28:57.027Z,1.11
2023-01-22T01:31:26.282Z,1.02
2023-01-22T01:33:57.923Z,1.07
2023-01-22T01:36:50.072Z,1.07
2023-01-22T01:39:14.112Z,1.13
2023-01-22T01:41:42.060Z,1.05
2023-01-22T01:44:21.955Z,1.05
2023-01-22T01:46:55.727Z,1.03
2023-01-22T01:49:32.226Z,0.94
2023-01-22T01:52:05.103Z,1.02
2023-01-22T01:54:33.016Z,1.00
2023-01-22T01:57:19.391Z,1.03
2023-01-22T01:59:49.840Z,1.03
2023-01-22T02:02:20.473Z,1.08
2023-01-22T02:04:51.267Z,1.05
2023-01-22T02:07:20.799Z,1.08
2023-01-22T02:09:48.794Z,1.09
2023-01-22T02:12:16.863Z,1.09
2023-01-22T02:14:45.936Z,1.11
2023-01-22T02:17:19.319Z,1.00
2023-01-22T02:19:48.075Z,1.01
2023-01-22T02:22:38.713Z,1.04
2023-01-22T02:25:07.732Z,1.05
2023-01-22T02:27:35.696Z,0.99
2023-01-22T02:30:08.345Z,0.97
2023-01-22T02:32:36.353Z,0.93
2023-01-22T02:35:04.632Z,1.01
2023-01-22T02:37:32.634Z,1.07
2023-01-22T02:40:00.594Z,1.11
2023-01-22T02:42:29.612Z,1.13
2023-01-22T02:44:57.568Z,1.12
2023-01-22T02:47:25.835Z,1.07
2023-01-22T02:49:54.798Z,1.07
2023-01-22T02:52:23.244Z,1.04
2023-01-22T02:54:51.248Z,1.01
2023-01-22T02:57:19.342Z,0.98
2023-01-22T02:59:47.807Z,1.02
2023-01-22T03:02:15.771Z,1.04
2023-01-22T03:04:46.566Z,1.06
2023-01-22T03:07:14.457Z,1.06
2023-01-22T03:09:43.673Z,1.03
2023-01-22T03:12:12.738Z,1.04
2023-01-22T03:15:00.159Z,1.07
2023-01-22T03:17:46.662Z,1.07
2023-01-22T03:20:34.321Z,0.98
2023-01-22T03:23:02.222Z,1.00
2023-01-22T03:25:30.076Z,1.05
2023-01-22T03:28:18.915Z,1.05
2023-01-22T03:30:52.915Z,1.02
2023-01-22T03:33:21.081Z,1.05
2023-01-22T03:35:50.228Z,1.01
2023-01-22T03:38:21.111Z,0.96
2023-01-22T03:40:49.035Z,1.02
2023-01-22T03:43:17.558Z,1.09
2023-01-22T03:45:45.554Z,0.94
2023-01-22T03:48:15.315Z,0.99
2023-01-22T03:50:43.262Z,0.98
2023-01-22T03:53:11.160Z,0.88
2023-01-22T03:55:39.060Z,0.95
2023-01-22T03:58:06.965Z,1.02
2023-01-22T04:00:36.086Z,1.01
2023-01-22T04:03:06.415Z,0.99
2023-01-22T04:05:37.252Z,1.04
2023-01-22T04:08:05.375Z,0.96
2023-01-22T04:10:34.169Z,0.96
2023-01-22T04:13:04.095Z,1.00
2023-01-22T04:15:32.172Z,1.02
2023-01-22T04:18:03.122Z,1.07
2023-01-22T04:20:41.072Z,1.09
2023-01-22T04:23:31.269Z,1.04
2023-01-22T04:25:59.311Z,1.05
2023-01-22T04:28:27.309Z,1.09
2023-01-22T04:30:56.968Z,1.09
2023-01-22T04:33:51.260Z,1.02
2023-01-22T04:36:23.387Z,1.02
2023-01-22T04:38:51.355Z,1.06
2023-01-22T04:41:19.808Z,1.08
2023-01-22T04:43:48.408Z,1.09
2023-01-22T04:46:16.846Z,1.09
2023-01-22T04:48:46.404Z,1.07
2023-01-22T04:51:14.972Z,1.09
2023-01-22T04:53:43.264Z,1.09
2023-01-22T04:56:11.293Z,1.09
2023-01-22T04:58:39.910Z,1.06
2023-01-22T05:01:08.005Z,0.96
2023-01-22T05:03:35.995Z,0.98
2023-01-22T05:06:05.495Z,0.99
2023-01-22T05:08:36.199Z,1.01
2023-01-22T05:11:05.097Z,1.00
2023-01-22T05:13:42.253Z,1.04
2023-01-22T05:16:10.291Z,1.03
2023-01-22T05:18:38.348Z,1.04
2023-01-22T05:21:06.392Z,1.01
2023-01-22T05:23:35.359Z,0.96
2023-01-22T05:26:03.533Z,0.86
2023-01-22T05:29:00.697Z,0.96
2023-01-22T05:31:39.152Z,0.98
2023-01-22T05:34:11.976Z,1.04
2023-01-22T05:36:39.933Z,1.02
2023-01-22T05:39:16.249Z,1.01
2023-01-22T05:41:44.607Z,1.01
2023-01-22T05:44:14.352Z,1.02
2023-01-22T05:46:44.733Z,1.05
2023-01-22T05:49:26.623Z,1.05
2023-01-22T05:51:57.399Z,0.97
2023-01-22T05:54:25.438Z,0.97
2023-01-22T05:56:53.631Z,0.98
2023-01-22T05:59:21.633Z,0.97
2023-01-22T06:01:56.033Z,1.03
2023-01-22T06:04:24.055Z,1.01
2023-01-22T06:06:51.992Z,1.06
2023-01-22T06:09:21.449Z,1.03
2023-01-22T06:11:49.757Z,1.04
2023-01-22T06:14:17.812Z,0.97
2023-01-22T06:16:45.789Z,1.02
2023-01-22T06:19:22.484Z,1.02
2023-01-22T06:21:53.819Z,0.90
2023-01-22T06:24:26.854Z,0.95
2023-01-22T06:26:54.968Z,1.05
2023-01-22T06:29:25.374Z,1.06
2023-01-22T06:31:54.191Z,1.04
2023-01-22T06:34:22.971Z,1.05
2023-01-22T06:36:50.831Z,1.04
2023-01-22T06:39:19.118Z,1.00
2023-01-22T06:41:58.301Z,1.07
2023-01-22T06:44:26.457Z,1.13
2023-01-22T06:46:54.621Z,1.16
2023-01-22T06:49:26.391Z,1.14
2023-01-22T06:51:55.839Z,1.09
2023-01-22T06:54:24.408Z,1.05
2023-01-22T06:56:52.388Z,1.11
2023-01-22T06:59:22.674Z,1.15
2023-01-22T07:01:50.732Z,1.11
2023-01-22T07:04:18.715Z,1.12
2023-01-22T07:06:46.745Z,1.15
2023-01-22T07:09:14.649Z,1.18
2023-01-22T07:11:42.654Z,1.10
2023-01-22T07:14:10.666Z,1.16
2023-01-22T07:16:38.625Z,1.20
2023-01-22T07:19:06.579Z,1.11
2023-01-22T07:21:34.481Z,1.05
2023-01-22T07:24:02.533Z,1.13
2023-01-22T07:26:30.465Z,1.18
2023-01-22T07:28:58.385Z,1.19
2023-01-22T07:31:26.554Z,1.26
2023-01-22T07:33:54.830Z,1.29
2023-01-22T07:36:23.053Z,1.22
2023-01-22T07:38:51.000Z,1.17
2023-01-22T07:41:25.811Z,1.07
2023-01-22T07:43:55.969Z,1.10
2023-01-22T07:46:24.252Z,1.21
2023-01-22T07:48:52.528Z,1.24
2023-01-22T07:51:21.095Z,1.24
2023-01-22T07:53:49.113Z,1.12
2023-01-22T07:56:19.078Z,1.20
2023-01-22T07:58:47.084Z,1.30
2023-01-22T08:01:15.898Z,1.31
2023-01-22T08:03:45.094Z,1.32
2023-01-22T08:06:17.696Z,1.37
2023-01-22T08:08:45.733Z,1.38
2023-01-22T08:11:14.223Z,1.39
2023-01-22T08:13:42.195Z,1.37
2023-01-22T08:16:10.066Z,1.33
2023-01-22T08:18:38.267Z,1.29
2023-01-22T08:21:06.684Z,1.26
2023-01-22T08:23:34.682Z,1.25
2023-01-22T08:26:04.313Z,1.31
2023-01-22T08:28:32.705Z,1.32
2023-01-22T08:31:03.194Z,1.25
2023-01-22T08:33:34.063Z,1.34
2023-01-22T08:36:02.255Z,1.25
2023-01-22T08:38:30.423Z,1.25
2023-01-22T08:40:58.372Z,1.35
2023-01-22T08:43:26.416Z,1.34
2023-01-22T08:45:54.490Z,1.29
2023-01-22T08:48:22.493Z,1.31
2023-01-22T08:50:50.412Z,1.36
2023-01-22T08:53:18.341Z,1.40
2023-01-22T08:55:50.186Z,1.42
2023-01-22T08:58:20.318Z,1.47
2023-01-22T09:00:49.021Z,1.39
2023-01-22T09:03:17.054Z,1.43
2023-01-22T09:05:44.987Z,1.44
2023-01-22T09:08:13.087Z,1.45
2023-01-22T09:10:41.064Z,1.48
2023-01-22T09:13:10.474Z,1.52
2023-01-22T09:15:40.474Z,1.56
2023-01-22T09:18:08.389Z,1.59
2023-01-22T09:20:36.298Z,1.53
2023-01-22T09:23:04.348Z,1.52
2023-01-22T09:25:32.292Z,1.53
2023-01-22T09:28:01.174Z,1.41
2023-01-22T09:30:30.462Z,1.47
2023-01-22T09:32:58.881Z,1.44
2023-01-22T09:35:28.118Z,1.33
2023-01-22T09:37:56.243Z,1.40
2023-01-22T09:40:32.365Z,1.50
2023-01-22T09:43:07.172Z,1.48
2023-01-22T09:45:40.705Z,1.36
2023-01-22T09:48:18.168Z,1.46
2023-01-22T09:50:46.866Z,1.56
2023-01-22T09:53:21.365Z,1.56
2023-01-22T09:55:53.006Z,1.64
2023-01-22T09:58:23.371Z,1.56
2023-01-22T10:01:00.699Z,1.51
2023-01-22T10:03:37.875Z,1.58
2023-01-22T10:06:18.721Z,1.47
2023-01-22T10:09:12.568Z,1.60
2023-01-22T10:11:40.554Z,1.73
2023-01-22T10:14:15.950Z,1.69
2023-01-22T10:16:45.451Z,1.63
2023-01-22T10:19:42.272Z,1.67
2023-01-22T10:22:23.261Z,1.66
2023-01-22T10:24:52.161Z,1.71
2023-01-22T10:27:32.747Z,1.70
2023-01-22T10:30:07.598Z,1.53
2023-01-22T10:32:35.484Z,1.53
2023-01-22T10:35:21.652Z,1.45
2023-01-22T10:37:55.765Z,1.42
2023-01-22T10:40:38.159Z,1.44
2023-01-22T10:43:13.526Z,1.47
2023-01-22T10:46:23.326Z,1.38
2023-01-22T10:49:06.221Z,1.39
2023-01-22T10:51:43.959Z,1.54
2023-01-22T10:54:34.765Z,1.62
2023-01-22T10:57:25.352Z,1.56
2023-01-22T11:00:05.823Z,1.60
2023-01-22T11:02:35.830Z,1.64
2023-01-22T11:05:21.090Z,1.65
2023-01-22T11:08:06.225Z,1.73
2023-01-22T11:10:50.327Z,1.54
2023-01-22T11:13:52.651Z,1.56
2023-01-22T11:16:24.067Z,1.64
2023-01-22T11:19:00.957Z,1.64
2023-01-22T11:21:42.777Z,1.75
2023-01-22T11:24:22.840Z,1.70
2023-01-22T11:27:36.723Z,1.64
2023-01-22T11:30:28.790Z,1.59
2023-01-22T11:33:30.754Z,1.80
2023-01-22T11:36:09.975Z,1.71
2023-01-22T11:39:25.543Z,1.61
2023-01-22T11:42:14.160Z,1.71
2023-01-22T11:45:07.073Z,1.73
2023-01-22T11:48:09.927Z,1.79
2023-01-22T11:51:15.167Z,1.72
2023-01-22T11:53:58.826Z,1.69
2023-01-22T11:56:54.579Z,1.65
2023-01-22T11:59:56.494Z,1.47
2023-01-22T12:03:09.265Z,1.45
2023-01-22T12:08:28.399Z,1.45
2023-01-22T12:11:26.626Z,1.59
2023-01-22T12:14:15.799Z,1.73
2023-01-22T12:17:34.481Z,1.80
2023-01-22T12:22:52.359Z,1.62
2023-01-22T12:25:51.080Z,1.45
2023-01-22T12:28:46.837Z,1.50
2023-01-22T12:31:49.763Z,1.50
2023-01-22T12:34:32.356Z,1.43
2023-01-22T12:37:03.795Z,1.52
2023-01-22T12:39:43.180Z,1.50
2023-01-22T12:42:57.685Z,1.51
2023-01-22T12:45:53.645Z,1.53
2023-01-22T12:49:10.007Z,1.53
2023-01-22T12:51:44.492Z,1.53
2023-01-22T12:54:26.150Z,1.59
2023-01-22T12:56:57.954Z,1.45
2023-01-22T12:59:34.752Z,1.50
2023-01-22T13:02:39.371Z,1.53
2023-01-22T13:05:25.640Z,1.52
2023-01-22T13:08:38.317Z,1.52
2023-01-22T13:11:13.869Z,1.58
2023-01-22T13:14:00.664Z,1.49
2023-01-22T13:16:39.307Z,1.45
2023-01-22T13:19:32.186Z,1.45
2023-01-22T13:22:00.897Z,1.45
2023-01-22T13:24:28.881Z,1.44
2023-01-22T13:27:03.202Z,1.47
2023-01-22T13:29:37.318Z,1.53
2023-01-22T13:32:17.726Z,1.58
2023-01-22T13:34:45.742Z,1.56
2023-01-22T13:37:26.259Z,1.60
2023-01-22T13:39:54.277Z,1.58
2023-01-22T13:42:24.717Z,1.56
2023-01-22T13:44:53.141Z,1.42
2023-01-22T13:47:29.843Z,1.52
2023-01-22T13:49:58.391Z,1.56
2023-01-22T13:52:28.517Z,1.59
2023-01-22T13:55:11.974Z,1.48
2023-01-22T13:57:51.997Z,1.45
2023-01-22T14:00:24.239Z,1.40
2023-01-22T14:02:52.826Z,1.34
2023-01-22T14:05:27.855Z,1.42
2023-01-22T14:08:13.407Z,1.37
2023-01-22T14:10:42.267Z,1.38
2023-01-22T14:13:13.347Z,1.44
2023-01-22T14:15:41.918Z,1.46
2023-01-22T14:18:13.539Z,1.50
2023-01-22T14:20:44.865Z,1.45
2023-01-22T14:23:15.080Z,1.46
2023-01-22T14:25:49.619Z,1.45
2023-01-22T14:28:18.645Z,1.44
2023-01-22T14:30:46.559Z,1.52
2023-01-22T14:33:24.780Z,1.50
2023-01-22T14:35:54.185Z,1.49
2023-01-22T14:38:24.046Z,1.49
2023-01-22T14:40:52.287Z,1.48
2023-01-22T14:43:20.997Z,1.38
2023-01-22T14:45:49.234Z,1.36
2023-01-22T14:48:20.270Z,1.42
2023-01-22T14:50:49.802Z,1.37
2023-01-22T14:53:19.473Z,1.27
2023-01-22T14:55:47.406Z,1.28
2023-01-22T14:58:16.311Z,1.32
2023-01-22T15:00:44.844Z,1.30
2023-01-22T15:03:12.725Z,1.30
2023-01-22T15:05:40.849Z,1.35
2023-01-22T15:08:08.780Z,1.30
2023-01-22T15:10:36.713Z,1.30
2023-01-22T15:13:04.652Z,1.25
2023-01-22T15:15:32.603Z,1.17
2023-01-22T15:18:00.502Z,1.13
2023-01-22T15:20:29.141Z,1.14
2023-01-22T15:22:57.153Z,1.17
2023-01-22T15:25:25.180Z,1.24
2023-01-22T15:27:53.165Z,1.27
2023-01-22T15:30:21.486Z,1.26
2023-01-22T15:32:49.617Z,1.27
2023-01-22T15:35:17.783Z,1.35
2023-01-22T15:37:47.364Z,1.35
2023-01-22T15:40:15.597Z,1.35
2023-01-22T15:42:43.493Z,1.33
2023-01-22T15:45:11.774Z,1.30
2023-01-22T15:47:39.741Z,1.31
2023-01-22T15:50:08.964Z,1.36
2023-01-22T15:52:36.984Z,1.33
2023-01-22T15:55:05.882Z,1.39
2023-01-22T15:57:33.776Z,1.37
2023-01-22T16:00:01.978Z,1.30
2023-01-22T16:02:40.348Z,1.26
2023-01-22T16:05:08.701Z,1.25
2023-01-22T16:07:36.631Z,1.29
2023-01-22T16:10:05.961Z,1.39
2023-01-22T16:12:34.748Z,1.42
2023-01-22T16:15:02.654Z,1.36
2023-01-22T16:17:30.628Z,1.32
2023-01-22T16:19:58.492Z,1.33
2023-01-22T16:22:26.342Z,1.27
2023-01-22T16:24:54.405Z,1.38
2023-01-22T16:27:22.452Z,1.42
2023-01-22T16:29:50.422Z,1.45
2023-01-22T16:32:18.302Z,1.49
2023-01-22T16:34:46.189Z,1.40
2023-01-22T16:37:14.106Z,1.45
2023-01-22T16:39:42.043Z,1.28
2023-01-22T16:42:09.974Z,1.35
2023-01-22T16:44:38.046Z,1.31
2023-01-22T16:47:05.957Z,1.31
2023-01-22T16:49:35.153Z,1.30
2023-01-22T16:52:21.062Z,1.35
2023-01-22T16:54:50.841Z,1.36
2023-01-22T16:57:20.091Z,1.35
2023-01-22T16:59:48.067Z,1.37
2023-01-22T17:02:19.004Z,1.38
2023-01-22T17:04:47.248Z,1.41
2023-01-22T17:07:31.645Z,1.40
2023-01-22T17:10:01.273Z,1.38
2023-01-22T17:12:29.576Z,1.34
2023-01-22T17:14:57.606Z,1.41
2023-01-22T17:17:25.667Z,1.51
2023-01-22T17:19:53.557Z,1.55
2023-01-22T17:22:21.598Z,1.50
2023-01-22T17:24:52.612Z,1.35
2023-01-22T17:27:21.441Z,1.42
2023-01-22T17:29:49.436Z,1.44
2023-01-22T17:32:17.409Z,1.40
2023-01-22T17:34:45.507Z,1.43
2023-01-22T17:37:13.620Z,1.37
2023-01-22T17:39:42.941Z,1.36
2023-01-22T17:42:10.818Z,1.40
2023-01-22T17:44:41.022Z,1.37
2023-01-22T17:47:09.463Z,1.43
2023-01-22T17:49:37.534Z,1.43
2023-01-22T17:52:06.120Z,1.43
2023-01-22T17:54:34.275Z,1.41
2023-01-22T17:57:02.184Z,1.37
2023-01-22T17:59:30.079Z,1.45
2023-01-22T18:01:59.630Z,1.40
2023-01-22T18:04:31.672Z,1.41
2023-01-22T18:06:59.639Z,1.42
2023-01-22T18:09:27.507Z,1.37
2023-01-22T18:11:57.828Z,1.37
2023-01-22T18:14:30.947Z,1.38
2023-01-22T18:16:59.225Z,1.40
2023-01-22T18:19:28.064Z,1.43
2023-01-22T18:21:56.257Z,1.46
2023-01-22T18:24:26.306Z,1.47
2023-01-22T18:26:54.789Z,1.43
2023-01-22T18:29:22.763Z,1.42
2023-01-22T18:31:50.817Z,1.44
2023-01-22T18:34:19.483Z,1.42
2023-01-22T18:36:47.573Z,1.43
2023-01-22T18:39:18.397Z,1.44
2023-01-22T18:41:47.088Z,1.41
2023-01-22T18:44:17.332Z,1.43
2023-01-22T18:46:48.206Z,1.48
2023-01-22T18:49:18.823Z,1.47
2023-01-22T18:51:47.556Z,1.44
2023-01-22T18:54:16.561Z,1.44
2023-01-22T18:56:46.344Z,1.29
2023-01-22T18:59:14.424Z,1.35
2023-01-22T19:01:49.997Z,1.39
2023-01-22T19:04:21.962Z,1.30
2023-01-22T19:06:53.356Z,1.31
2023-01-22T19:09:21.436Z,1.39
2023-01-22T19:11:52.263Z,1.42
2023-01-22T19:14:21.534Z,1.40
2023-01-22T19:16:53.455Z,1.37
2023-01-22T19:19:25.425Z,1.33
2023-01-22T19:21:55.578Z,1.28
2023-01-22T19:24:27.936Z,1.36
2023-01-22T19:26:57.220Z,1.31
2023-01-22T19:29:26.458Z,1.28
2023-01-22T19:31:58.077Z,1.29
2023-01-22T19:34:29.580Z,1.34
2023-01-22T19:37:06.283Z,1.23
2023-01-22T19:39:35.492Z,1.15
2023-01-22T19:42:05.191Z,1.24
2023-01-22T19:44:34.859Z,1.34
2023-01-22T19:47:03.280Z,1.39
2023-01-22T19:49:31.983Z,1.39
2023-01-22T19:52:02.117Z,1.32
2023-01-22T19:54:30.204Z,1.29
2023-01-22T19:56:58.104Z,1.28
2023-01-22T19:59:26.126Z,1.27
2023-01-22T20:01:54.182Z,1.20
2023-01-22T20:04:29.839Z,1.21
2023-01-22T20:07:01.852Z,1.23
2023-01-22T20:09:31.199Z,1.19
2023-01-22T20:12:02.142Z,1.15
2023-01-22T20:14:34.048Z,1.20
2023-01-22T20:17:02.612Z,1.13
2023-01-22T20:19:31.695Z,1.17
2023-01-22T20:22:02.789Z,1.17
2023-01-22T20:24:30.840Z,1.17
2023-01-22T20:26:58.873Z,1.23
2023-01-22T20:29:27.061Z,1.27
2023-01-22T20:31:55.756Z,1.22
2023-01-22T20:34:23.849Z,1.21
2023-01-22T20:36:52.124Z,1.22
2023-01-22T20:39:21.216Z,1.21
2023-01-22T20:41:49.396Z,1.14
2023-01-22T20:44:17.564Z,1.18
2023-01-22T20:46:45.802Z,1.18
2023-01-22T20:49:13.764Z,1.08
2023-01-22T20:51:42.586Z,1.15
2023-01-22T20:54:10.872Z,1.15
2023-01-22T20:56:38.862Z,1.11
2023-01-22T20:59:12.371Z,1.13
2023-01-22T21:01:41.100Z,1.11
2023-01-22T21:04:10.214Z,1.17
2023-01-22T21:06:42.464Z,1.20
2023-01-22T21:09:11.603Z,1.07
2023-01-22T21:11:41.815Z,1.08
2023-01-22T21:14:17.809Z,1.15
2023-01-22T21:16:46.150Z,1.22
2023-01-22T21:19:23.458Z,1.14
2023-01-22T21:21:52.657Z,1.17
2023-01-22T21:24:20.971Z,1.11
2023-01-22T21:26:48.902Z,1.04
2023-01-22T21:29:23.085Z,1.07
2023-01-22T21:31:52.646Z,1.07
2023-01-22T21:34:25.780Z,1.12
2023-01-22T21:36:58.250Z,1.10
2023-01-22T21:39:29.871Z,1.09
2023-01-22T21:42:16.892Z,1.16
2023-01-22T21:45:03.633Z,1.07
2023-01-22T21:47:32.286Z,0.94
2023-01-22T21:50:00.230Z,0.97
2023-01-22T21:52:28.192Z,0.91
2023-01-22T21:54:56.813Z,0.96
2023-01-22T21:57:25.491Z,1.02
2023-01-22T21:59:53.361Z,1.00
2023-01-22T22:02:22.310Z,0.95
2023-01-22T22:04:50.351Z,0.97
2023-01-22T22:07:18.229Z,1.11
2023-01-22T22:09:46.136Z,1.04
2023-01-22T22:12:14.211Z,1.01
2023-01-22T22:14:42.191Z,1.00
2023-01-22T22:17:10.803Z,1.03
2023-01-22T22:19:38.933Z,1.02
2023-01-22T22:22:06.973Z,1.09
2023-01-22T22:24:34.896Z,1.13
2023-01-22T22:27:02.763Z,1.15
2023-01-22T22:29:30.673Z,1.12
2023-01-22T22:31:58.705Z,1.06
2023-01-22T22:34:26.818Z,1.10
2023-01-22T22:36:54.891Z,0.99
2023-01-22T22:39:22.944Z,1.05
2023-01-22T22:41:50.864Z,1.07
2023-01-22T22:44:18.832Z,1.06
2023-01-22T22:46:46.739Z,0.99
2023-01-22T22:49:14.646Z,1.02
2023-01-22T22:51:43.689Z,1.05
2023-01-22T22:54:18.284Z,0.95
2023-01-22T22:56:48.566Z,0.92
2023-01-22T22:59:19.718Z,0.97
2023-01-22T23:01:49.894Z,1.02
2023-01-22T23:04:17.982Z,0.96
2023-01-22T23:06:46.874Z,1.00
2023-01-22T23:09:19.751Z,1.06
2023-01-22T23:11:51.445Z,0.93
2023-01-22T23:14:19.400Z,0.96
2023-01-22T23:16:49.764Z,0.96
2023-01-22T23:19:25.040Z,0.98
2023-01-22T23:21:58.897Z,1.03
2023-01-22T23:24:27.820Z,1.02
2023-01-22T23:26:56.992Z,1.07
2023-01-22T23:29:26.815Z,0.97
2023-01-22T23:31:55.899Z,1.00
2023-01-22T23:34:24.214Z,1.01
2023-01-22T23:36:52.225Z,1.04
2023-01-22T23:39:21.260Z,1.09
2023-01-22T23:41:49.505Z,1.11
2023-01-22T23:44:17.607Z,0.93
2023-01-22T23:46:45.650Z,0.99
2023-01-22T23:49:13.595Z,1.08
2023-01-22T23:51:43.591Z,1.00
2023-01-22T23:54:11.723Z,0.91
2023-01-22T23:56:39.671Z,0.87
2023-01-22T23:59:07.512Z,0.95
